sensor_id;sensor_type;location;lat;lon;timestamp;P1;durP1;ratioP1;P2;durP2;ratioP2
47749;SDS011;49810;48.160;10.812;2023-02-04T00:00:20;7.95;;;4.95;;
47749;SDS011;49810;48.160;10.812;2023-02-04T00:02:48;12.38;;;5.55;;
47749;SDS011;49810;48.160;10.812;2023-02-04T00:05:16;10.52;;;4.88;;
47749;SDS011;49810;48.160;10.812;2023-02-04T00:07:44;9.02;;;4.97;;
47749;SDS011;49810;48.160;10.812;2023-02-04T00:10:12;10.38;;;5.80;;
47749;SDS011;49810;48.160;10.812;2023-02-04T00:12:41;8.48;;;5.43;;
47749;SDS011;49810;48.160;10.812;2023-02-04T00:15:09;7.50;;;4.45;;
47749;SDS011;49810;48.160;10.812;2023-02-04T00:17:37;8.20;;;5.20;;
47749;SDS011;49810;48.160;10.812;2023-02-04T00:20:06;7.05;;;5.00;;
47749;SDS011;49810;48.160;10.812;2023-02-04T00:22:33;6.40;;;4.60;;
47749;SDS011;49810;48.160;10.812;2023-02-04T00:25:02;7.40;;;5.40;;
47749;SDS011;49810;48.160;10.812;2023-02-04T00:27:30;8.90;;;5.50;;
47749;SDS011;49810;48.160;10.812;2023-02-04T00:30:00;8.70;;;5.68;;
47749;SDS011;49810;48.160;10.812;2023-02-04T00:32:28;9.18;;;5.78;;
47749;SDS011;49810;48.160;10.812;2023-02-04T00:34:56;11.38;;;6.07;;
47749;SDS011;49810;48.160;10.812;2023-02-04T00:37:24;14.02;;;6.25;;
47749;SDS011;49810;48.160;10.812;2023-02-04T00:39:52;8.68;;;5.30;;
47749;SDS011;49810;48.160;10.812;2023-02-04T00:42:20;9.65;;;4.25;;
47749;SDS011;49810;48.160;10.812;2023-02-04T00:44:48;8.35;;;5.13;;
47749;SDS011;49810;48.160;10.812;2023-02-04T00:47:17;6.88;;;4.65;;
47749;SDS011;49810;48.160;10.812;2023-02-04T00:49:45;7.03;;;4.72;;
47749;SDS011;49810;48.160;10.812;2023-02-04T00:52:12;8.05;;;4.60;;
47749;SDS011;49810;48.160;10.812;2023-02-04T00:54:40;7.63;;;5.50;;
47749;SDS011;49810;48.160;10.812;2023-02-04T00:57:08;7.90;;;5.32;;
47749;SDS011;49810;48.160;10.812;2023-02-04T00:59:36;7.20;;;5.28;;
47749;SDS011;49810;48.160;10.812;2023-02-04T01:02:04;7.82;;;5.90;;
47749;SDS011;49810;48.160;10.812;2023-02-04T01:04:33;10.13;;;5.97;;
47749;SDS011;49810;48.160;10.812;2023-02-04T01:07:00;11.23;;;6.70;;
47749;SDS011;49810;48.160;10.812;2023-02-04T01:09:28;11.15;;;7.35;;
47749;SDS011;49810;48.160;10.812;2023-02-04T01:11:56;10.95;;;6.93;;
47749;SDS011;49810;48.160;10.812;2023-02-04T01:14:24;9.95;;;6.85;;
47749;SDS011;49810;48.160;10.812;2023-02-04T01:16:53;11.05;;;7.13;;
47749;SDS011;49810;48.160;10.812;2023-02-04T01:19:20;9.40;;;6.43;;
47749;SDS011;49810;48.160;10.812;2023-02-04T01:21:50;8.98;;;6.22;;
47749;SDS011;49810;48.160;10.812;2023-02-04T01:24:18;10.65;;;6.20;;
47749;SDS011;49810;48.160;10.812;2023-02-04T01:27:04;16.02;;;7.15;;
47749;SDS011;49810;48.160;10.812;2023-02-04T01:29:32;12.70;;;7.88;;
47749;SDS011;49810;48.160;10.812;2023-02-04T01:32:00;12.77;;;7.95;;
47749;SDS011;49810;48.160;10.812;2023-02-04T01:34:28;12.10;;;7.28;;
47749;SDS011;49810;48.160;10.812;2023-02-04T01:36:58;12.98;;;7.22;;
47749;SDS011;49810;48.160;10.812;2023-02-04T01:39:26;11.15;;;6.63;;
47749;SDS011;49810;48.160;10.812;2023-02-04T01:41:54;11.55;;;6.88;;
47749;SDS011;49810;48.160;10.812;2023-02-04T01:44:21;9.95;;;6.60;;
47749;SDS011;49810;48.160;10.812;2023-02-04T01:46:49;6.68;;;4.85;;
47749;SDS011;49810;48.160;10.812;2023-02-04T01:49:17;11.13;;;6.00;;
47749;SDS011;49810;48.160;10.812;2023-02-04T01:51:45;9.13;;;5.80;;
47749;SDS011;49810;48.160;10.812;2023-02-04T01:54:14;10.70;;;5.82;;
47749;SDS011;49810;48.160;10.812;2023-02-04T01:56:44;9.27;;;5.95;;
47749;SDS011;49810;48.160;10.812;2023-02-04T01:59:13;9.80;;;6.55;;
47749;SDS011;49810;48.160;10.812;2023-02-04T02:01:42;10.50;;;5.70;;
47749;SDS011;49810;48.160;10.812;2023-02-04T02:04:11;10.63;;;5.95;;
47749;SDS011;49810;48.160;10.812;2023-02-04T02:06:41;9.40;;;5.43;;
47749;SDS011;49810;48.160;10.812;2023-02-04T02:09:10;9.40;;;6.03;;
47749;SDS011;49810;48.160;10.812;2023-02-04T02:11:39;11.30;;;6.45;;
47749;SDS011;49810;48.160;10.812;2023-02-04T02:14:07;10.57;;;5.47;;
47749;SDS011;49810;48.160;10.812;2023-02-04T02:16:35;9.35;;;6.13;;
47749;SDS011;49810;48.160;10.812;2023-02-04T02:19:04;13.80;;;6.82;;
47749;SDS011;49810;48.160;10.812;2023-02-04T02:21:36;8.23;;;5.47;;
47749;SDS011;49810;48.160;10.812;2023-02-04T02:24:20;7.00;;;4.88;;
47749;SDS011;49810;48.160;10.812;2023-02-04T02:26:52;8.77;;;5.57;;
47749;SDS011;49810;48.160;10.812;2023-02-04T02:29:22;7.97;;;5.15;;
47749;SDS011;49810;48.160;10.812;2023-02-04T02:31:50;11.00;;;6.22;;
47749;SDS011;49810;48.160;10.812;2023-02-04T02:34:18;7.97;;;5.60;;
47749;SDS011;49810;48.160;10.812;2023-02-04T02:36:46;8.38;;;4.97;;
47749;SDS011;49810;48.160;10.812;2023-02-04T02:39:14;9.07;;;4.90;;
47749;SDS011;49810;48.160;10.812;2023-02-04T02:41:43;9.13;;;5.30;;
47749;SDS011;49810;48.160;10.812;2023-02-04T02:44:11;7.93;;;4.55;;
47749;SDS011;49810;48.160;10.812;2023-02-04T02:46:39;8.65;;;4.60;;
47749;SDS011;49810;48.160;10.812;2023-02-04T02:49:07;7.50;;;4.25;;
47749;SDS011;49810;48.160;10.812;2023-02-04T02:51:39;7.90;;;4.88;;
47749;SDS011;49810;48.160;10.812;2023-02-04T02:54:08;7.63;;;4.38;;
47749;SDS011;49810;48.160;10.812;2023-02-04T02:56:40;7.53;;;4.60;;
47749;SDS011;49810;48.160;10.812;2023-02-04T02:59:13;8.80;;;4.65;;
47749;SDS011;49810;48.160;10.812;2023-02-04T03:01:42;5.20;;;3.60;;
47749;SDS011;49810;48.160;10.812;2023-02-04T03:04:10;6.05;;;4.15;;
47749;SDS011;49810;48.160;10.812;2023-02-04T03:06:39;5.75;;;4.07;;
47749;SDS011;49810;48.160;10.812;2023-02-04T03:09:07;6.85;;;3.95;;
47749;SDS011;49810;48.160;10.812;2023-02-04T03:11:36;5.80;;;3.60;;
47749;SDS011;49810;48.160;10.812;2023-02-04T03:14:03;6.90;;;3.40;;
47749;SDS011;49810;48.160;10.812;2023-02-04T03:16:33;10.77;;;4.03;;
47749;SDS011;49810;48.160;10.812;2023-02-04T03:19:03;13.75;;;3.88;;
47749;SDS011;49810;48.160;10.812;2023-02-04T03:21:32;10.43;;;4.45;;
47749;SDS011;49810;48.160;10.812;2023-02-04T03:24:02;19.23;;;5.10;;
47749;SDS011;49810;48.160;10.812;2023-02-04T03:26:29;12.98;;;4.97;;
47749;SDS011;49810;48.160;10.812;2023-02-04T03:28:57;19.95;;;5.75;;
47749;SDS011;49810;48.160;10.812;2023-02-04T03:31:25;17.52;;;5.15;;
47749;SDS011;49810;48.160;10.812;2023-02-04T03:33:54;20.85;;;5.63;;
47749;SDS011;49810;48.160;10.812;2023-02-04T03:36:22;16.90;;;5.38;;
47749;SDS011;49810;48.160;10.812;2023-02-04T03:38:50;22.23;;;5.50;;
47749;SDS011;49810;48.160;10.812;2023-02-04T03:41:19;17.75;;;5.25;;
47749;SDS011;49810;48.160;10.812;2023-02-04T03:43:47;16.77;;;5.82;;
47749;SDS011;49810;48.160;10.812;2023-02-04T03:46:15;20.05;;;6.00;;
47749;SDS011;49810;48.160;10.812;2023-02-04T03:48:42;22.02;;;5.80;;
47749;SDS011;49810;48.160;10.812;2023-02-04T03:51:12;20.90;;;6.28;;
47749;SDS011;49810;48.160;10.812;2023-02-04T03:53:39;22.55;;;6.30;;
47749;SDS011;49810;48.160;10.812;2023-02-04T03:56:07;20.85;;;5.97;;
47749;SDS011;49810;48.160;10.812;2023-02-04T03:58:35;20.30;;;6.75;;
47749;SDS011;49810;48.160;10.812;2023-02-04T04:01:03;23.08;;;6.65;;
47749;SDS011;49810;48.160;10.812;2023-02-04T04:03:31;23.42;;;5.68;;
47749;SDS011;49810;48.160;10.812;2023-02-04T04:05:59;19.25;;;5.63;;
47749;SDS011;49810;48.160;10.812;2023-02-04T04:08:28;22.63;;;5.78;;
47749;SDS011;49810;48.160;10.812;2023-02-04T04:10:56;19.65;;;6.13;;
47749;SDS011;49810;48.160;10.812;2023-02-04T04:13:23;24.58;;;6.47;;
47749;SDS011;49810;48.160;10.812;2023-02-04T04:15:51;22.48;;;6.72;;
47749;SDS011;49810;48.160;10.812;2023-02-04T04:18:19;19.02;;;6.32;;
47749;SDS011;49810;48.160;10.812;2023-02-04T04:20:47;17.83;;;5.90;;
47749;SDS011;49810;48.160;10.812;2023-02-04T04:23:14;17.02;;;5.60;;
47749;SDS011;49810;48.160;10.812;2023-02-04T04:25:43;25.13;;;5.90;;
47749;SDS011;49810;48.160;10.812;2023-02-04T04:28:11;26.52;;;6.60;;
47749;SDS011;49810;48.160;10.812;2023-02-04T04:30:39;23.75;;;6.32;;
47749;SDS011;49810;48.160;10.812;2023-02-04T04:33:07;22.58;;;6.47;;
47749;SDS011;49810;48.160;10.812;2023-02-04T04:35:35;30.73;;;6.97;;
47749;SDS011;49810;48.160;10.812;2023-02-04T04:38:02;27.48;;;6.93;;
47749;SDS011;49810;48.160;10.812;2023-02-04T04:40:30;21.52;;;6.50;;
47749;SDS011;49810;48.160;10.812;2023-02-04T04:43:00;21.38;;;6.18;;
47749;SDS011;49810;48.160;10.812;2023-02-04T04:45:27;15.55;;;5.55;;
47749;SDS011;49810;48.160;10.812;2023-02-04T04:47:55;22.77;;;6.15;;
47749;SDS011;49810;48.160;10.812;2023-02-04T04:50:23;25.75;;;7.10;;
47749;SDS011;49810;48.160;10.812;2023-02-04T04:52:51;22.67;;;6.80;;
47749;SDS011;49810;48.160;10.812;2023-02-04T04:55:18;19.90;;;6.57;;
47749;SDS011;49810;48.160;10.812;2023-02-04T04:57:46;19.23;;;6.05;;
47749;SDS011;49810;48.160;10.812;2023-02-04T05:00:16;24.13;;;6.70;;
47749;SDS011;49810;48.160;10.812;2023-02-04T05:02:44;20.33;;;6.25;;
47749;SDS011;49810;48.160;10.812;2023-02-04T05:05:12;20.92;;;6.82;;
47749;SDS011;49810;48.160;10.812;2023-02-04T05:07:40;17.67;;;6.00;;
47749;SDS011;49810;48.160;10.812;2023-02-04T05:10:09;27.30;;;7.45;;
47749;SDS011;49810;48.160;10.812;2023-02-04T05:12:37;22.52;;;6.03;;
47749;SDS011;49810;48.160;10.812;2023-02-04T05:15:05;17.30;;;6.00;;
47749;SDS011;49810;48.160;10.812;2023-02-04T05:17:34;22.10;;;6.90;;
47749;SDS011;49810;48.160;10.812;2023-02-04T05:20:02;23.90;;;7.07;;
47749;SDS011;49810;48.160;10.812;2023-02-04T05:22:30;18.17;;;6.40;;
47749;SDS011;49810;48.160;10.812;2023-02-04T05:24:58;17.15;;;6.35;;
47749;SDS011;49810;48.160;10.812;2023-02-04T05:27:26;17.98;;;5.72;;
47749;SDS011;49810;48.160;10.812;2023-02-04T05:29:54;21.17;;;6.13;;
47749;SDS011;49810;48.160;10.812;2023-02-04T05:32:21;17.30;;;6.57;;
47749;SDS011;49810;48.160;10.812;2023-02-04T05:34:50;26.25;;;7.25;;
47749;SDS011;49810;48.160;10.812;2023-02-04T05:37:18;20.42;;;6.47;;
47749;SDS011;49810;48.160;10.812;2023-02-04T05:39:46;26.48;;;7.55;;
47749;SDS011;49810;48.160;10.812;2023-02-04T05:42:14;28.85;;;11.30;;
47749;SDS011;49810;48.160;10.812;2023-02-04T05:44:42;33.28;;;8.55;;
47749;SDS011;49810;48.160;10.812;2023-02-04T05:47:09;29.33;;;7.93;;
47749;SDS011;49810;48.160;10.812;2023-02-04T05:49:37;18.65;;;6.90;;
47749;SDS011;49810;48.160;10.812;2023-02-04T05:52:07;18.25;;;6.60;;
47749;SDS011;49810;48.160;10.812;2023-02-04T05:54:35;24.13;;;7.15;;
47749;SDS011;49810;48.160;10.812;2023-02-04T05:57:03;26.40;;;7.72;;
47749;SDS011;49810;48.160;10.812;2023-02-04T05:59:30;23.52;;;6.85;;
47749;SDS011;49810;48.160;10.812;2023-02-04T06:01:58;19.80;;;7.13;;
47749;SDS011;49810;48.160;10.812;2023-02-04T06:04:26;28.27;;;8.27;;
47749;SDS011;49810;48.160;10.812;2023-02-04T06:06:54;22.60;;;6.88;;
47749;SDS011;49810;48.160;10.812;2023-02-04T06:09:23;26.10;;;7.55;;
47749;SDS011;49810;48.160;10.812;2023-02-04T06:11:51;26.25;;;8.45;;
47749;SDS011;49810;48.160;10.812;2023-02-04T06:14:21;22.08;;;8.07;;
47749;SDS011;49810;48.160;10.812;2023-02-04T06:16:52;20.77;;;7.80;;
47749;SDS011;49810;48.160;10.812;2023-02-04T06:19:20;22.42;;;7.50;;
47749;SDS011;49810;48.160;10.812;2023-02-04T06:21:49;23.15;;;6.55;;
47749;SDS011;49810;48.160;10.812;2023-02-04T06:24:17;27.40;;;7.45;;
47749;SDS011;49810;48.160;10.812;2023-02-04T06:26:46;25.60;;;7.78;;
47749;SDS011;49810;48.160;10.812;2023-02-04T06:29:14;26.45;;;7.88;;
47749;SDS011;49810;48.160;10.812;2023-02-04T06:31:41;19.27;;;7.25;;
47749;SDS011;49810;48.160;10.812;2023-02-04T06:34:10;22.17;;;6.85;;
47749;SDS011;49810;48.160;10.812;2023-02-04T06:36:37;24.17;;;7.88;;
47749;SDS011;49810;48.160;10.812;2023-02-04T06:39:05;24.48;;;7.43;;
47749;SDS011;49810;48.160;10.812;2023-02-04T06:41:33;28.70;;;7.38;;
47749;SDS011;49810;48.160;10.812;2023-02-04T06:44:02;18.63;;;6.50;;
47749;SDS011;49810;48.160;10.812;2023-02-04T06:46:30;25.15;;;6.85;;
47749;SDS011;49810;48.160;10.812;2023-02-04T06:48:58;22.02;;;6.18;;
47749;SDS011;49810;48.160;10.812;2023-02-04T06:51:25;18.10;;;6.32;;
47749;SDS011;49810;48.160;10.812;2023-02-04T06:53:53;24.38;;;6.60;;
47749;SDS011;49810;48.160;10.812;2023-02-04T06:56:21;24.02;;;6.30;;
47749;SDS011;49810;48.160;10.812;2023-02-04T06:58:49;19.80;;;5.80;;
47749;SDS011;49810;48.160;10.812;2023-02-04T07:01:18;23.70;;;6.55;;
47749;SDS011;49810;48.160;10.812;2023-02-04T07:03:46;22.70;;;6.00;;
47749;SDS011;49810;48.160;10.812;2023-02-04T07:06:13;26.85;;;6.53;;
47749;SDS011;49810;48.160;10.812;2023-02-04T07:08:41;23.92;;;6.03;;
47749;SDS011;49810;48.160;10.812;2023-02-04T07:11:09;29.10;;;7.10;;
47749;SDS011;49810;48.160;10.812;2023-02-04T07:13:37;19.70;;;5.55;;
47749;SDS011;49810;48.160;10.812;2023-02-04T07:16:05;22.50;;;6.40;;
47749;SDS011;49810;48.160;10.812;2023-02-04T07:18:34;21.20;;;6.43;;
47749;SDS011;49810;48.160;10.812;2023-02-04T07:21:02;23.75;;;8.10;;
47749;SDS011;49810;48.160;10.812;2023-02-04T07:23:30;29.50;;;7.15;;
47749;SDS011;49810;48.160;10.812;2023-02-04T07:25:58;21.80;;;7.75;;
47749;SDS011;49810;48.160;10.812;2023-02-04T07:28:26;28.48;;;6.55;;
47749;SDS011;49810;48.160;10.812;2023-02-04T07:30:54;23.70;;;6.30;;
47749;SDS011;49810;48.160;10.812;2023-02-04T07:33:22;21.92;;;6.60;;
47749;SDS011;49810;48.160;10.812;2023-02-04T07:35:51;20.08;;;7.25;;
47749;SDS011;49810;48.160;10.812;2023-02-04T07:38:19;31.02;;;7.80;;
47749;SDS011;49810;48.160;10.812;2023-02-04T07:40:47;20.52;;;6.65;;
47749;SDS011;49810;48.160;10.812;2023-02-04T07:43:15;25.58;;;7.60;;
47749;SDS011;49810;48.160;10.812;2023-02-04T07:45:42;21.63;;;6.63;;
47749;SDS011;49810;48.160;10.812;2023-02-04T07:48:10;18.88;;;6.28;;
47749;SDS011;49810;48.160;10.812;2023-02-04T07:50:38;19.15;;;5.45;;
47749;SDS011;49810;48.160;10.812;2023-02-04T07:53:07;21.45;;;5.53;;
47749;SDS011;49810;48.160;10.812;2023-02-04T07:55:35;18.88;;;4.97;;
47749;SDS011;49810;48.160;10.812;2023-02-04T07:58:03;20.83;;;6.10;;
47749;SDS011;49810;48.160;10.812;2023-02-04T08:00:31;31.80;;;9.25;;
47749;SDS011;49810;48.160;10.812;2023-02-04T08:03:00;20.52;;;6.72;;
47749;SDS011;49810;48.160;10.812;2023-02-04T08:05:27;12.73;;;3.00;;
47749;SDS011;49810;48.160;10.812;2023-02-04T08:07:56;18.73;;;4.38;;
47749;SDS011;49810;48.160;10.812;2023-02-04T08:10:25;18.20;;;3.75;;
47749;SDS011;49810;48.160;10.812;2023-02-04T08:12:53;12.98;;;3.20;;
47749;SDS011;49810;48.160;10.812;2023-02-04T08:15:20;15.88;;;3.70;;
47749;SDS011;49810;48.160;10.812;2023-02-04T08:17:48;17.73;;;3.65;;
47749;SDS011;49810;48.160;10.812;2023-02-04T08:20:16;12.30;;;3.38;;
47749;SDS011;49810;48.160;10.812;2023-02-04T08:22:45;15.10;;;2.45;;
47749;SDS011;49810;48.160;10.812;2023-02-04T08:25:13;17.95;;;3.63;;
47749;SDS011;49810;48.160;10.812;2023-02-04T08:27:43;14.40;;;4.68;;
47749;SDS011;49810;48.160;10.812;2023-02-04T08:30:12;16.25;;;2.78;;
47749;SDS011;49810;48.160;10.812;2023-02-04T08:32:40;14.82;;;2.78;;
47749;SDS011;49810;48.160;10.812;2023-02-04T08:35:08;15.27;;;2.80;;
47749;SDS011;49810;48.160;10.812;2023-02-04T08:37:36;15.00;;;2.92;;
47749;SDS011;49810;48.160;10.812;2023-02-04T08:40:04;10.73;;;2.78;;
47749;SDS011;49810;48.160;10.812;2023-02-04T08:42:32;13.38;;;2.55;;
47749;SDS011;49810;48.160;10.812;2023-02-04T08:45:02;15.15;;;2.95;;
47749;SDS011;49810;48.160;10.812;2023-02-04T08:47:30;14.07;;;3.05;;
47749;SDS011;49810;48.160;10.812;2023-02-04T08:49:58;11.18;;;3.22;;
47749;SDS011;49810;48.160;10.812;2023-02-04T08:52:26;15.40;;;2.55;;
47749;SDS011;49810;48.160;10.812;2023-02-04T08:54:53;12.18;;;2.50;;
47749;SDS011;49810;48.160;10.812;2023-02-04T08:57:21;16.00;;;3.05;;
47749;SDS011;49810;48.160;10.812;2023-02-04T08:59:49;14.15;;;2.67;;
47749;SDS011;49810;48.160;10.812;2023-02-04T09:02:18;11.23;;;3.03;;
47749;SDS011;49810;48.160;10.812;2023-02-04T09:04:46;13.95;;;3.53;;
47749;SDS011;49810;48.160;10.812;2023-02-04T09:07:14;14.63;;;2.97;;
47749;SDS011;49810;48.160;10.812;2023-02-04T09:09:41;19.42;;;3.50;;
47749;SDS011;49810;48.160;10.812;2023-02-04T09:12:09;18.67;;;3.40;;
47749;SDS011;49810;48.160;10.812;2023-02-04T09:14:37;16.23;;;3.90;;
47749;SDS011;49810;48.160;10.812;2023-02-04T09:17:05;11.88;;;2.42;;
47749;SDS011;49810;48.160;10.812;2023-02-04T09:19:34;13.13;;;2.95;;
47749;SDS011;49810;48.160;10.812;2023-02-04T09:22:02;14.40;;;3.05;;
47749;SDS011;49810;48.160;10.812;2023-02-04T09:24:30;18.60;;;3.50;;
47749;SDS011;49810;48.160;10.812;2023-02-04T09:26:58;16.23;;;3.00;;
47749;SDS011;49810;48.160;10.812;2023-02-04T09:29:25;15.23;;;3.30;;
47749;SDS011;49810;48.160;10.812;2023-02-04T09:31:53;14.40;;;3.65;;
47749;SDS011;49810;48.160;10.812;2023-02-04T09:34:21;13.73;;;3.22;;
47749;SDS011;49810;48.160;10.812;2023-02-04T09:36:50;16.42;;;2.92;;
47749;SDS011;49810;48.160;10.812;2023-02-04T09:39:18;11.98;;;3.10;;
47749;SDS011;49810;48.160;10.812;2023-02-04T09:41:46;19.02;;;3.40;;
47749;SDS011;49810;48.160;10.812;2023-02-04T09:44:15;11.32;;;3.13;;
47749;SDS011;49810;48.160;10.812;2023-02-04T09:46:45;17.58;;;3.63;;
47749;SDS011;49810;48.160;10.812;2023-02-04T09:49:13;13.15;;;3.50;;
47749;SDS011;49810;48.160;10.812;2023-02-04T09:51:41;21.23;;;4.68;;
47749;SDS011;49810;48.160;10.812;2023-02-04T09:54:12;20.05;;;4.03;;
47749;SDS011;49810;48.160;10.812;2023-02-04T09:56:40;19.30;;;5.47;;
47749;SDS011;49810;48.160;10.812;2023-02-04T09:59:09;12.48;;;2.90;;
47749;SDS011;49810;48.160;10.812;2023-02-04T10:01:38;26.25;;;4.30;;
47749;SDS011;49810;48.160;10.812;2023-02-04T10:04:07;20.58;;;3.38;;
47749;SDS011;49810;48.160;10.812;2023-02-04T10:06:36;19.42;;;3.45;;
47749;SDS011;49810;48.160;10.812;2023-02-04T10:09:04;18.40;;;3.95;;
47749;SDS011;49810;48.160;10.812;2023-02-04T10:11:35;12.10;;;3.30;;
47749;SDS011;49810;48.160;10.812;2023-02-04T10:14:03;15.55;;;3.42;;
47749;SDS011;49810;48.160;10.812;2023-02-04T10:16:32;16.83;;;4.10;;
47749;SDS011;49810;48.160;10.812;2023-02-04T10:19:02;18.92;;;3.30;;
47749;SDS011;49810;48.160;10.812;2023-02-04T10:21:31;17.40;;;3.97;;
47749;SDS011;49810;48.160;10.812;2023-02-04T10:24:00;16.70;;;4.47;;
47749;SDS011;49810;48.160;10.812;2023-02-04T10:26:29;16.23;;;4.18;;
47749;SDS011;49810;48.160;10.812;2023-02-04T10:28:59;20.58;;;4.10;;
47749;SDS011;49810;48.160;10.812;2023-02-04T10:31:28;16.40;;;4.25;;
47749;SDS011;49810;48.160;10.812;2023-02-04T10:34:03;15.38;;;3.45;;
47749;SDS011;49810;48.160;10.812;2023-02-04T10:36:31;18.02;;;4.05;;
47749;SDS011;49810;48.160;10.812;2023-02-04T10:39:00;22.42;;;4.20;;
47749;SDS011;49810;48.160;10.812;2023-02-04T10:41:28;12.55;;;3.67;;
47749;SDS011;49810;48.160;10.812;2023-02-04T10:44:04;15.45;;;3.83;;
47749;SDS011;49810;48.160;10.812;2023-02-04T10:46:32;18.45;;;3.58;;
47749;SDS011;49810;48.160;10.812;2023-02-04T10:49:02;20.40;;;3.53;;
47749;SDS011;49810;48.160;10.812;2023-02-04T10:51:30;18.02;;;4.10;;
47749;SDS011;49810;48.160;10.812;2023-02-04T10:53:58;22.45;;;4.72;;
47749;SDS011;49810;48.160;10.812;2023-02-04T10:56:43;21.98;;;3.60;;
47749;SDS011;49810;48.160;10.812;2023-02-04T10:59:18;16.52;;;3.40;;
47749;SDS011;49810;48.160;10.812;2023-02-04T11:01:47;12.93;;;2.75;;
47749;SDS011;49810;48.160;10.812;2023-02-04T11:04:15;19.73;;;3.97;;
47749;SDS011;49810;48.160;10.812;2023-02-04T11:06:43;22.60;;;3.75;;
47749;SDS011;49810;48.160;10.812;2023-02-04T11:09:11;16.85;;;3.70;;
47749;SDS011;49810;48.160;10.812;2023-02-04T11:11:44;18.20;;;4.20;;
47749;SDS011;49810;48.160;10.812;2023-02-04T11:14:24;14.50;;;3.95;;
47749;SDS011;49810;48.160;10.812;2023-02-04T11:16:54;18.90;;;4.05;;
47749;SDS011;49810;48.160;10.812;2023-02-04T11:19:30;14.15;;;3.20;;
47749;SDS011;49810;48.160;10.812;2023-02-04T11:22:03;20.50;;;4.82;;
47749;SDS011;49810;48.160;10.812;2023-02-04T11:24:31;13.90;;;4.43;;
47749;SDS011;49810;48.160;10.812;2023-02-04T11:27:06;20.27;;;4.38;;
47749;SDS011;49810;48.160;10.812;2023-02-04T11:29:45;13.40;;;2.90;;
47749;SDS011;49810;48.160;10.812;2023-02-04T11:32:28;14.95;;;3.05;;
47749;SDS011;49810;48.160;10.812;2023-02-04T11:35:05;16.27;;;3.33;;
47749;SDS011;49810;48.160;10.812;2023-02-04T11:37:35;9.55;;;2.40;;
47749;SDS011;49810;48.160;10.812;2023-02-04T11:40:19;14.07;;;3.28;;
47749;SDS011;49810;48.160;10.812;2023-02-04T11:42:47;13.60;;;3.23;;
47749;SDS011;49810;48.160;10.812;2023-02-04T11:45:19;17.65;;;3.90;;
47749;SDS011;49810;48.160;10.812;2023-02-04T11:47:47;14.00;;;3.40;;
47749;SDS011;49810;48.160;10.812;2023-02-04T11:50:18;17.77;;;4.22;;
47749;SDS011;49810;48.160;10.812;2023-02-04T11:52:48;15.00;;;4.15;;
47749;SDS011;49810;48.160;10.812;2023-02-04T11:55:15;22.92;;;4.68;;
47749;SDS011;49810;48.160;10.812;2023-02-04T11:57:44;19.30;;;4.22;;
47749;SDS011;49810;48.160;10.812;2023-02-04T12:00:13;11.48;;;2.72;;
47749;SDS011;49810;48.160;10.812;2023-02-04T12:02:45;15.10;;;3.22;;
47749;SDS011;49810;48.160;10.812;2023-02-04T12:05:14;13.93;;;2.97;;
47749;SDS011;49810;48.160;10.812;2023-02-04T12:07:42;11.15;;;3.45;;
47749;SDS011;49810;48.160;10.812;2023-02-04T12:10:11;12.18;;;3.22;;
47749;SDS011;49810;48.160;10.812;2023-02-04T12:12:40;11.48;;;2.90;;
47749;SDS011;49810;48.160;10.812;2023-02-04T12:15:12;11.25;;;3.25;;
47749;SDS011;49810;48.160;10.812;2023-02-04T12:17:44;14.73;;;3.08;;
47749;SDS011;49810;48.160;10.812;2023-02-04T12:20:12;12.32;;;2.53;;
47749;SDS011;49810;48.160;10.812;2023-02-04T12:22:41;10.40;;;2.53;;
47749;SDS011;49810;48.160;10.812;2023-02-04T12:25:08;10.13;;;2.80;;
47749;SDS011;49810;48.160;10.812;2023-02-04T12:27:42;13.05;;;2.53;;
47749;SDS011;49810;48.160;10.812;2023-02-04T12:30:10;7.07;;;1.75;;
47749;SDS011;49810;48.160;10.812;2023-02-04T12:32:38;10.15;;;2.60;;
47749;SDS011;49810;48.160;10.812;2023-02-04T12:35:08;10.63;;;2.20;;
47749;SDS011;49810;48.160;10.812;2023-02-04T12:37:35;12.85;;;2.58;;
47749;SDS011;49810;48.160;10.812;2023-02-04T12:40:04;11.30;;;2.58;;
47749;SDS011;49810;48.160;10.812;2023-02-04T12:42:32;7.88;;;2.22;;
47749;SDS011;49810;48.160;10.812;2023-02-04T12:44:59;11.80;;;2.65;;
47749;SDS011;49810;48.160;10.812;2023-02-04T12:47:27;11.70;;;2.83;;
47749;SDS011;49810;48.160;10.812;2023-02-04T12:49:55;15.52;;;4.05;;
47749;SDS011;49810;48.160;10.812;2023-02-04T12:52:24;10.85;;;3.08;;
47749;SDS011;49810;48.160;10.812;2023-02-04T12:54:52;12.45;;;2.88;;
47749;SDS011;49810;48.160;10.812;2023-02-04T12:57:21;13.43;;;3.42;;
47749;SDS011;49810;48.160;10.812;2023-02-04T12:59:48;11.57;;;2.47;;
47749;SDS011;49810;48.160;10.812;2023-02-04T13:02:16;13.93;;;2.80;;
47749;SDS011;49810;48.160;10.812;2023-02-04T13:04:44;7.93;;;2.10;;
47749;SDS011;49810;48.160;10.812;2023-02-04T13:07:12;10.88;;;2.55;;
47749;SDS011;49810;48.160;10.812;2023-02-04T13:09:41;15.40;;;2.72;;
47749;SDS011;49810;48.160;10.812;2023-02-04T13:12:10;17.65;;;2.38;;
47749;SDS011;49810;48.160;10.812;2023-02-04T13:14:39;8.23;;;2.20;;
47749;SDS011;49810;48.160;10.812;2023-02-04T13:17:07;8.75;;;2.15;;
47749;SDS011;49810;48.160;10.812;2023-02-04T13:19:35;10.73;;;2.90;;
47749;SDS011;49810;48.160;10.812;2023-02-04T13:22:04;12.43;;;2.30;;
47749;SDS011;49810;48.160;10.812;2023-02-04T13:24:31;6.55;;;2.28;;
47749;SDS011;49810;48.160;10.812;2023-02-04T13:27:01;10.02;;;2.45;;
47749;SDS011;49810;48.160;10.812;2023-02-04T13:29:28;10.45;;;2.50;;
47749;SDS011;49810;48.160;10.812;2023-02-04T13:31:56;8.13;;;2.15;;
47749;SDS011;49810;48.160;10.812;2023-02-04T13:34:24;8.57;;;1.70;;
47749;SDS011;49810;48.160;10.812;2023-02-04T13:36:52;10.68;;;2.33;;
47749;SDS011;49810;48.160;10.812;2023-02-04T13:39:20;9.63;;;2.38;;
47749;SDS011;49810;48.160;10.812;2023-02-04T13:41:48;8.95;;;2.05;;
47749;SDS011;49810;48.160;10.812;2023-02-04T13:44:18;11.98;;;2.70;;
47749;SDS011;49810;48.160;10.812;2023-02-04T13:46:47;6.75;;;2.22;;
47749;SDS011;49810;48.160;10.812;2023-02-04T13:49:14;10.60;;;2.47;;
47749;SDS011;49810;48.160;10.812;2023-02-04T13:51:42;8.68;;;2.40;;
47749;SDS011;49810;48.160;10.812;2023-02-04T13:54:10;10.85;;;2.42;;
47749;SDS011;49810;48.160;10.812;2023-02-04T13:56:39;6.57;;;1.40;;
47749;SDS011;49810;48.160;10.812;2023-02-04T13:59:07;6.43;;;1.80;;
47749;SDS011;49810;48.160;10.812;2023-02-04T14:01:36;10.75;;;2.38;;
47749;SDS011;49810;48.160;10.812;2023-02-04T14:04:04;9.15;;;2.42;;
47749;SDS011;49810;48.160;10.812;2023-02-04T14:06:32;12.00;;;2.60;;
47749;SDS011;49810;48.160;10.812;2023-02-04T14:09:03;6.43;;;1.65;;
47749;SDS011;49810;48.160;10.812;2023-02-04T14:11:31;5.80;;;1.92;;
47749;SDS011;49810;48.160;10.812;2023-02-04T14:13:59;7.13;;;2.33;;
47749;SDS011;49810;48.160;10.812;2023-02-04T14:16:27;6.78;;;2.20;;
47749;SDS011;49810;48.160;10.812;2023-02-04T14:18:56;7.38;;;2.10;;
47749;SDS011;49810;48.160;10.812;2023-02-04T14:21:24;5.25;;;1.85;;
47749;SDS011;49810;48.160;10.812;2023-02-04T14:23:52;9.10;;;2.40;;
47749;SDS011;49810;48.160;10.812;2023-02-04T14:26:20;10.75;;;2.92;;
47749;SDS011;49810;48.160;10.812;2023-02-04T14:28:48;11.45;;;5.30;;
47749;SDS011;49810;48.160;10.812;2023-02-04T14:31:15;9.23;;;3.35;;